Fort Davis, TX

7:19 PM CST on February 05, 2016 (GMT -0600)
FA Ranch Limpia Crossing | | Change Station
CLOSE
Current Station
Personal Weather Station
Location: Fort Davis, TX
Elevation: 5262 ft
Nearby Weather Stations

Elev 5262 ft 30.62 °N, 103.97 °W | Updated 6 minutes ago

Clear
Clear
40.1 °F
Feels Like 38 °F
N
3.2
Wind Variable Wind from ESE

Today
High -- | Low -- °F
--% Chance of Precip.
Yesterday
High -- | Low -- °F
Precip. -- in
Pressure 30.38 in
Visibility 10.0 miles
Clouds Clear
Windchill 38 °F
Dew Point 10 °F
Humidity 28%
Rainfall 0.00 in
Snow Depth Not available.
7:44 AM 6:35 PM
Waning Crescent, 8% visible
METAR KMRF 060056Z AUTO 01011KT 10SM CLR 05/M13 A3032 RMK AO2 WSHFT 0022 SLP286 T00501133
Pressure 30.38 in
Visibility 10.0 miles
Clouds Clear
Windchill 38 °F
Dew Point 10 °F
Humidity 28%
Rainfall 0.00 in
Snow Depth Not available.
7:44 AM 6:35 PM
Waning Crescent, 8% visible
METAR KMRF 060056Z AUTO 01011KT 10SM CLR 05/M13 A3032 RMK AO2 WSHFT 0022 SLP286 T00501133

10-Day Weather Forecast

Almanac

Astronomy

Feb. 05, 2016 Rise Set
Actual Time
Civil Twilight
Nautical Twilight
Astronomical Twilight
Moon
Length of Visible Light
Length of Day
Tomorrow will be .
, % of the Moon is Illuminated

Today's Extremes

State Highs State Lows

Community

WunderPhotos

Upload Photos

1,890,904 photos uploaded!

WunderBlog® & News

Nearby

Air Quality

  Air Quality AQ Index Pollutant
Not available.

Snow Depth

Station Depth Elevation

Earthquake Activity

City Distance Mag. Time & Date
Minimum magnitude displayed is 2.5.

Coastal Water Temperatures

Place Temperature

Stations

Nearby Weather Stations

Station Location Temp. Windchill Dew Point Humidity Wind Precip. Elev Updated Type
                   

Watches & Warnings

There are currently no watches in effect.